createdAt,value
2018-06-12T00:00:34.741Z,96.91
2018-06-12T00:03:03.696Z,96.86
2018-06-12T00:05:32.889Z,96.66
2018-06-12T00:08:02.093Z,96.82
2018-06-12T00:10:31.284Z,96.41
2018-06-12T00:13:00.477Z,97.08
2018-06-12T00:15:29.693Z,96.42
2018-06-12T00:17:59.232Z,96.16
2018-06-12T00:20:28.457Z,96.76
2018-06-12T00:22:57.655Z,96.31
2018-06-12T00:25:26.842Z,95.74
2018-06-12T00:27:56.033Z,95.72
2018-06-12T00:30:25.225Z,96.00
2018-06-12T00:32:54.424Z,96.75
2018-06-12T00:35:23.619Z,96.86
2018-06-12T00:37:53.073Z,95.71
2018-06-12T00:40:22.269Z,95.76
2018-06-12T00:42:51.465Z,95.67
2018-06-12T00:45:20.654Z,95.77
2018-06-12T00:47:49.852Z,95.96
2018-06-12T00:50:19.042Z,95.79
2018-06-12T00:52:48.235Z,95.74
2018-06-12T00:55:17.423Z,94.82
2018-06-12T00:57:46.640Z,95.50
2018-06-12T01:00:15.821Z,94.83
2018-06-12T01:02:44.981Z,95.25
2018-06-12T01:05:14.145Z,95.38
2018-06-12T01:07:43.309Z,95.75
2018-06-12T01:10:12.469Z,95.37
2018-06-12T01:12:41.628Z,95.60
2018-06-12T01:15:10.801Z,95.13
2018-06-12T01:17:39.957Z,94.65
2018-06-12T01:20:09.124Z,95.51
2018-06-12T01:22:38.281Z,95.88
2018-06-12T01:25:07.452Z,95.57
2018-06-12T01:27:36.609Z,95.80
2018-06-12T01:30:05.997Z,95.84
2018-06-12T01:32:35.160Z,95.85
2018-06-12T01:35:04.345Z,96.54
2018-06-12T01:37:33.512Z,96.81
2018-06-12T01:40:02.685Z,96.50
2018-06-12T01:42:31.852Z,96.50
2018-06-12T01:45:01.037Z,97.02
2018-06-12T01:47:30.193Z,97.11
2018-06-12T01:49:59.379Z,96.25
2018-06-12T01:52:28.528Z,96.65
2018-06-12T01:54:57.693Z,96.47
2018-06-12T01:57:26.859Z,96.67
2018-06-12T01:59:56.024Z,96.67
2018-06-12T02:02:25.249Z,96.09
2018-06-12T02:04:54.430Z,96.25
2018-06-12T02:07:23.634Z,96.80
2018-06-12T02:09:52.817Z,96.89
2018-06-12T02:12:22.017Z,96.44
2018-06-12T02:14:51.204Z,96.91
2018-06-12T02:17:20.524Z,96.98
2018-06-12T02:19:49.728Z,96.91
2018-06-12T02:22:18.925Z,96.55
2018-06-12T02:24:48.117Z,95.46
2018-06-12T02:27:17.321Z,95.64
2018-06-12T02:29:46.521Z,95.42
2018-06-12T02:32:15.727Z,95.21
2018-06-12T02:34:44.925Z,96.06
2018-06-12T02:37:14.121Z,95.83
2018-06-12T02:39:43.304Z,96.63
2018-06-12T02:42:12.497Z,96.52
2018-06-12T02:44:41.763Z,96.25
2018-06-12T02:47:10.894Z,95.66
2018-06-12T02:49:40.096Z,96.06
2018-06-12T02:52:09.286Z,96.67
2018-06-12T02:54:38.493Z,97.05
2018-06-12T02:57:07.688Z,95.67
2018-06-12T02:59:36.889Z,95.01
2018-06-12T03:02:06.077Z,93.81
2018-06-12T03:04:35.276Z,94.03
2018-06-12T03:07:04.476Z,94.33
2018-06-12T03:09:33.676Z,93.89
2018-06-12T03:12:02.880Z,94.17
2018-06-12T03:14:32.082Z,95.11
2018-06-12T03:17:01.266Z,95.19
2018-06-12T03:19:30.477Z,95.48
2018-06-12T03:21:59.661Z,95.69
2018-06-12T03:24:28.855Z,95.55
2018-06-12T03:26:58.048Z,95.64
2018-06-12T03:29:27.243Z,95.11
2018-06-12T03:31:56.453Z,95.67
2018-06-12T03:34:25.637Z,96.21
2018-06-12T03:36:54.829Z,96.29
2018-06-12T03:39:24.019Z,96.06
2018-06-12T03:41:53.220Z,95.77
2018-06-12T03:44:22.408Z,95.67
2018-06-12T03:46:51.613Z,95.82
2018-06-12T03:49:20.804Z,96.00
2018-06-12T03:51:50.011Z,95.71
2018-06-12T03:54:19.201Z,95.76
2018-06-12T03:56:48.164Z,95.89
2018-06-12T03:59:17.359Z,94.04
2018-06-12T04:01:46.545Z,94.45
2018-06-12T04:04:15.713Z,93.11
2018-06-12T04:06:44.891Z,93.35
2018-06-12T04:09:14.054Z,92.00
2018-06-12T04:11:43.211Z,93.40
2018-06-12T04:14:12.372Z,93.26
2018-06-12T04:16:41.533Z,93.63
2018-06-12T04:19:10.699Z,93.61
2018-06-12T04:21:39.864Z,92.87
2018-06-12T04:24:09.029Z,92.71
2018-06-12T04:26:38.189Z,92.01
2018-06-12T04:29:07.367Z,91.78
2018-06-12T04:31:36.521Z,91.39
2018-06-12T04:34:05.695Z,91.22
2018-06-12T04:36:34.853Z,90.67
2018-06-12T04:39:05.689Z,90.54
2018-06-12T04:41:34.879Z,91.33
2018-06-12T04:44:04.072Z,91.74
2018-06-12T04:46:33.233Z,91.31
2018-06-12T04:49:02.640Z,91.98
2018-06-12T04:51:31.811Z,91.69
2018-06-12T04:54:00.981Z,90.82
2018-06-12T04:56:30.141Z,90.22
2018-06-12T04:58:59.301Z,89.84
2018-06-12T05:01:28.470Z,89.73
2018-06-12T05:03:57.641Z,89.06
2018-06-12T05:06:26.808Z,89.39
2018-06-12T05:08:55.968Z,89.64
2018-06-12T05:11:25.137Z,89.07
2018-06-12T05:13:54.067Z,89.46
2018-06-12T05:16:23.240Z,89.33
2018-06-12T05:18:52.401Z,89.24
2018-06-12T05:21:21.684Z,88.65
2018-06-12T05:23:50.869Z,88.78
2018-06-12T05:26:20.029Z,90.60
2018-06-12T05:28:49.197Z,89.24
2018-06-12T05:31:18.367Z,88.83
2018-06-12T05:33:47.594Z,89.41
2018-06-12T05:36:16.830Z,88.61
2018-06-12T05:38:45.979Z,89.08
2018-06-12T05:41:15.156Z,88.91
2018-06-12T05:43:44.321Z,89.65
2018-06-12T05:46:13.482Z,88.86
2018-06-12T05:48:42.640Z,88.52
2018-06-12T05:51:11.828Z,87.57
2018-06-12T05:53:41.001Z,88.71
2018-06-12T05:56:10.169Z,88.46
2018-06-12T05:58:39.338Z,87.23
2018-06-12T06:01:08.529Z,87.92
2018-06-12T06:03:37.743Z,87.10
2018-06-12T19:58:25.643Z,66.63
2018-06-12T20:00:54.615Z,65.54
2018-06-12T20:03:24.523Z,67.56
2018-06-12T20:05:53.728Z,66.48
2018-06-12T20:08:23.007Z,66.09
2018-06-12T20:10:52.206Z,66.35
2018-06-12T20:13:21.405Z,67.16
2018-06-12T20:15:50.788Z,67.23
2018-06-12T20:18:20.013Z,67.07
2018-06-12T20:20:49.237Z,67.54
2018-06-12T20:23:18.442Z,66.68
2018-06-12T20:25:47.408Z,66.50
2018-06-12T20:28:16.607Z,67.26
2018-06-12T20:30:45.808Z,67.93
2018-06-12T20:33:15.053Z,68.24
2018-06-12T20:35:44.246Z,68.29
2018-06-12T20:38:13.484Z,68.06
2018-06-12T20:40:42.684Z,68.66
2018-06-12T20:43:11.910Z,67.86
2018-06-12T20:45:41.108Z,68.20
2018-06-12T20:48:10.403Z,68.51
2018-06-12T20:50:39.566Z,68.43
2018-06-12T20:53:08.770Z,68.21
2018-06-12T20:55:37.961Z,68.25
2018-06-12T20:58:07.281Z,68.54
2018-06-12T21:00:36.476Z,69.09
2018-06-12T21:03:05.657Z,68.44
2018-06-12T21:05:34.821Z,69.07
2018-06-12T21:08:03.989Z,69.86
2018-06-12T21:10:33.165Z,69.11
2018-06-12T21:13:02.329Z,69.35
2018-06-12T21:15:31.498Z,69.48
2018-06-12T21:18:00.720Z,69.85
2018-06-12T21:20:29.926Z,69.87
2018-06-12T21:22:59.127Z,70.52
2018-06-12T21:25:28.300Z,70.00
2018-06-12T21:27:57.488Z,69.89
2018-06-12T21:30:26.671Z,70.50
2018-06-12T21:32:55.603Z,70.47
2018-06-12T21:35:24.823Z,70.70
2018-06-12T21:37:54.007Z,70.16
2018-06-12T21:40:23.177Z,71.06
2018-06-12T21:42:52.432Z,71.42
2018-06-12T21:45:21.580Z,70.19
2018-06-12T21:47:50.756Z,71.04
2018-06-12T21:50:19.828Z,71.29
2018-06-12T21:52:49.061Z,71.57
2018-06-12T21:55:18.297Z,71.97
2018-06-12T21:57:47.451Z,73.39
2018-06-12T22:00:35.961Z,74.42
2018-06-12T22:03:05.145Z,75.62
2018-06-12T22:05:34.316Z,77.54
2018-06-12T22:08:05.177Z,79.83
2018-06-12T22:10:34.333Z,81.28
2018-06-12T22:13:03.508Z,82.92
2018-06-12T22:15:32.677Z,82.36
2018-06-12T22:18:01.846Z,83.59
2018-06-12T22:20:31.013Z,82.92
2018-06-12T22:23:00.214Z,81.55
2018-06-12T22:25:29.376Z,82.14
2018-06-12T22:27:58.549Z,81.31
2018-06-12T22:30:27.713Z,79.09
2018-06-12T22:32:56.877Z,79.07
2018-06-12T22:35:26.060Z,77.13
2018-06-12T22:37:55.239Z,76.68
2018-06-12T22:40:24.409Z,76.99
2018-06-12T22:42:53.569Z,77.06
2018-06-12T22:45:22.529Z,76.92
2018-06-12T22:47:51.695Z,76.37
2018-06-12T22:50:20.876Z,76.05
2018-06-12T22:52:50.057Z,76.74
2018-06-12T22:55:19.246Z,77.41
2018-06-12T22:57:48.254Z,77.01
2018-06-12T23:00:22.047Z,77.30
2018-06-12T23:02:51.221Z,77.21
2018-06-12T23:05:20.398Z,76.76
2018-06-12T23:07:49.551Z,75.45
2018-06-12T23:10:18.744Z,74.48
2018-06-12T23:12:47.916Z,74.54
2018-06-12T23:15:17.081Z,74.95
2018-06-12T23:17:46.257Z,74.58
2018-06-12T23:20:32.687Z,74.16
2018-06-12T23:23:01.849Z,74.16
2018-06-12T23:25:31.004Z,72.86
2018-06-12T23:28:00.177Z,72.77
2018-06-12T23:30:29.340Z,73.26
2018-06-12T23:32:58.517Z,72.22
2018-06-12T23:35:27.460Z,70.87
2018-06-12T23:37:56.628Z,71.93
2018-06-12T23:40:25.800Z,71.76
2018-06-12T23:42:54.752Z,71.88
2018-06-12T23:45:23.921Z,71.36
2018-06-12T23:47:53.112Z,72.10
2018-06-12T23:50:22.308Z,71.92
2018-06-12T23:52:51.514Z,72.07
2018-06-12T23:55:20.712Z,72.32
2018-06-12T23:57:49.896Z,71.67
